createdAt,value
2023-05-05T00:02:13.090Z,100854.00
2023-05-05T00:05:27.990Z,100852.44
2023-05-05T00:08:37.001Z,100851.91
2023-05-05T00:11:53.016Z,100853.59
2023-05-05T00:15:00.990Z,100853.59
2023-05-05T00:18:16.987Z,100852.38
2023-05-05T00:21:18.889Z,100851.72
2023-05-05T00:24:34.004Z,100848.81
2023-05-05T00:27:41.981Z,100857.28
2023-05-05T00:30:57.081Z,100858.00
2023-05-05T00:33:59.776Z,100853.78
2023-05-05T00:37:22.052Z,100845.78
2023-05-05T00:40:24.025Z,100840.78
2023-05-05T00:43:40.013Z,100841.66
2023-05-05T00:46:48.366Z,100839.09
2023-05-05T00:50:03.077Z,100843.44
2023-05-05T00:53:06.848Z,100830.72
2023-05-05T00:56:27.008Z,100843.87
2023-05-05T00:59:37.995Z,100836.69
2023-05-05T01:02:53.167Z,100834.66
2023-05-05T01:06:31.006Z,100840.09
2023-05-05T01:10:19.637Z,100845.53
2023-05-05T01:13:43.990Z,100841.16
2023-05-05T01:17:07.019Z,100841.72
2023-05-05T01:20:30.017Z,100828.19
2023-05-05T01:23:54.043Z,100825.31
2023-05-05T01:27:27.048Z,100828.97
2023-05-05T01:30:56.013Z,100828.97
2023-05-05T01:34:15.187Z,100825.25
2023-05-05T01:37:35.730Z,100820.37
2023-05-05T01:40:59.014Z,100829.81
2023-05-05T01:44:16.998Z,100833.41
2023-05-05T01:47:27.899Z,100829.72
2023-05-05T01:50:43.981Z,100829.22
2023-05-05T01:53:53.043Z,100828.19
2023-05-05T01:57:03.256Z,100827.88
2023-05-05T02:00:19.019Z,100833.06
2023-05-05T02:03:30.429Z,100824.53
2023-05-05T02:06:46.999Z,100814.47
2023-05-05T02:09:56.736Z,100824.09
2023-05-05T02:13:09.097Z,100825.22
2023-05-05T02:16:19.700Z,100827.06
2023-05-05T02:19:34.041Z,100825.75
2023-05-05T02:22:49.020Z,100820.97
2023-05-05T02:26:02.018Z,100821.50
2023-05-05T02:29:25.017Z,100822.56
2023-05-05T02:32:51.036Z,100814.31
2023-05-05T02:35:55.158Z,100814.09
2023-05-05T02:39:20.021Z,100819.72
2023-05-05T02:42:39.052Z,100804.56
2023-05-05T02:45:47.031Z,100815.19
2023-05-05T02:49:02.027Z,100815.78
2023-05-05T02:52:04.590Z,100816.03
2023-05-05T02:55:20.048Z,100823.56
2023-05-05T02:58:29.480Z,100823.34
2023-05-05T03:02:10.036Z,100829.25
2023-05-05T03:05:28.035Z,100826.03
2023-05-05T03:09:14.220Z,100820.44
2023-05-05T03:12:27.006Z,100819.34
2023-05-05T03:15:47.005Z,100822.31
2023-05-05T03:19:04.006Z,100812.69
2023-05-05T03:22:12.938Z,100815.09
2023-05-05T03:25:28.023Z,100812.47
2023-05-05T03:28:36.849Z,100820.78
2023-05-05T03:31:52.040Z,100797.19
2023-05-05T03:34:59.987Z,100827.16
2023-05-05T03:38:08.520Z,100826.03
2023-05-05T03:41:17.000Z,100824.13
2023-05-05T03:44:32.029Z,100818.72
2023-05-05T03:47:40.286Z,100828.06
2023-05-05T03:50:55.023Z,100826.41
2023-05-05T03:54:04.033Z,100827.09
2023-05-05T03:57:12.588Z,100830.31
2023-05-05T04:00:27.019Z,100828.94
2023-05-05T04:03:28.959Z,100837.28
2023-05-05T04:06:44.029Z,100836.97
2023-05-05T04:09:52.988Z,100839.66
2023-05-05T04:13:01.060Z,100843.84
2023-05-05T04:16:16.052Z,100842.16
2023-05-05T04:19:24.674Z,100847.75
2023-05-05T04:22:39.025Z,100849.53
2023-05-05T04:25:47.768Z,100844.09
2023-05-05T04:29:03.031Z,100841.88
2023-05-05T04:32:12.024Z,100833.47
2023-05-05T04:35:28.016Z,100836.69
2023-05-05T04:38:42.079Z,100822.56
2023-05-05T04:41:57.003Z,100842.81
2023-05-05T04:44:58.858Z,100852.44
2023-05-05T04:48:20.994Z,100852.94
2023-05-05T04:51:31.006Z,100861.47
2023-05-05T04:54:42.019Z,100861.72
2023-05-05T04:57:57.033Z,100868.94
2023-05-05T05:01:06.001Z,100866.12
2023-05-05T05:04:21.012Z,100869.28
2023-05-05T05:07:36.014Z,100874.09
2023-05-05T05:10:45.117Z,100869.53
2023-05-05T05:13:54.016Z,100875.13
2023-05-05T05:17:02.577Z,100881.06
2023-05-05T05:20:17.998Z,100874.84
2023-05-05T05:23:26.576Z,100884.75
2023-05-05T05:26:35.023Z,100877.63
2023-05-05T05:29:43.636Z,100874.84
2023-05-05T05:32:52.027Z,100876.47
2023-05-05T05:36:00.530Z,100878.28
2023-05-05T05:39:15.013Z,100884.56
2023-05-05T05:42:17.012Z,100888.78
2023-05-05T05:45:32.014Z,100894.41
2023-05-05T05:48:40.050Z,100893.19
2023-05-05T05:51:48.609Z,100894.13
2023-05-05T05:55:04.027Z,100896.12
2023-05-05T05:58:05.917Z,100898.19
2023-05-05T06:01:22.050Z,100912.00
2023-05-05T06:04:31.136Z,100905.09
2023-05-05T06:07:40.065Z,100904.34
2023-05-05T06:10:55.041Z,100896.97
2023-05-05T06:13:57.023Z,100907.00
2023-05-05T06:17:12.028Z,100902.53
2023-05-05T06:20:21.579Z,100903.62
2023-05-05T06:23:36.127Z,100899.75
2023-05-05T06:26:45.021Z,100896.34
2023-05-05T06:30:00.058Z,100893.16
2023-05-05T06:33:08.056Z,100898.56
2023-05-05T06:36:16.676Z,100892.75
2023-05-05T06:39:25.054Z,100887.25
2023-05-05T06:42:33.769Z,100878.59
2023-05-05T06:45:49.053Z,100881.59
2023-05-05T06:49:04.008Z,100884.44
2023-05-05T06:52:13.015Z,100886.31
2023-05-05T06:55:28.142Z,100886.19
2023-05-05T06:58:36.693Z,100896.09
2023-05-05T07:01:45.075Z,100892.00
2023-05-05T07:04:53.707Z,100887.91
2023-05-05T07:08:08.033Z,100892.41
2023-05-05T07:11:10.205Z,100887.59
2023-05-05T07:14:25.062Z,100886.91
2023-05-05T07:17:33.027Z,100882.22
2023-05-05T07:20:41.759Z,100883.53
2023-05-05T07:23:50.056Z,100883.84
2023-05-05T07:26:58.845Z,100875.38
2023-05-05T07:30:11.219Z,100874.25
2023-05-05T07:33:27.029Z,100878.09
2023-05-05T07:36:35.714Z,100879.72
2023-05-05T07:39:48.099Z,100879.28
2023-05-05T07:42:57.028Z,100882.88
2023-05-05T07:46:06.414Z,100885.72
2023-05-05T07:49:24.088Z,100875.53
2023-05-05T07:52:45.249Z,100880.41
2023-05-05T07:56:05.092Z,100869.47
2023-05-05T07:59:07.080Z,100880.03
2023-05-05T08:02:22.187Z,100885.69
2023-05-05T08:05:30.676Z,100887.03
2023-05-05T08:08:39.015Z,100882.25
2023-05-05T08:11:55.086Z,100877.31
2023-05-05T08:14:57.029Z,100876.12
2023-05-05T08:18:12.110Z,100860.84
2023-05-05T08:21:20.771Z,100861.81
2023-05-05T08:24:36.068Z,100869.09
2023-05-05T08:27:44.846Z,100858.50
2023-05-05T08:30:54.268Z,100867.25
2023-05-05T08:34:07.159Z,100854.31
2023-05-05T08:37:22.088Z,100864.25
2023-05-05T08:40:40.070Z,100872.72
2023-05-05T08:43:56.104Z,100872.38
2023-05-05T08:47:05.834Z,100865.06
2023-05-05T08:50:24.105Z,100867.63
2023-05-05T08:53:45.329Z,100857.34
2023-05-05T08:57:05.042Z,100854.34
2023-05-05T09:00:14.247Z,100855.59
2023-05-05T09:03:23.105Z,100853.66
2023-05-05T09:06:31.959Z,100852.31
2023-05-05T09:09:41.046Z,100840.16
2023-05-05T09:12:49.766Z,100848.28
2023-05-05T09:15:58.002Z,100855.91
2023-05-05T09:19:06.670Z,100847.63
2023-05-05T09:22:15.090Z,100840.37
2023-05-05T09:25:31.240Z,100841.03
2023-05-05T09:28:54.203Z,100832.81
2023-05-05T09:32:10.067Z,100835.06
2023-05-05T09:35:26.536Z,100827.09
2023-05-05T09:38:35.074Z,100828.97
2023-05-05T09:41:44.031Z,100820.19
2023-05-05T09:44:52.089Z,100819.50
2023-05-05T09:48:14.080Z,100811.28
2023-05-05T09:51:16.134Z,100807.50
2023-05-05T09:54:33.159Z,100811.09
2023-05-05T09:57:41.688Z,100808.03
2023-05-05T10:00:57.045Z,100804.66
2023-05-05T10:04:05.087Z,100809.25
2023-05-05T10:07:30.074Z,100807.50
2023-05-05T10:10:59.650Z,100806.66
2023-05-05T10:14:14.101Z,100800.81
2023-05-05T10:17:23.112Z,100805.25
2023-05-05T10:20:33.515Z,100786.88
2023-05-05T10:23:55.076Z,100791.50
2023-05-05T10:26:58.657Z,100790.41
2023-05-05T10:30:14.149Z,100786.06
2023-05-05T10:36:51.764Z,100790.75
2023-05-05T10:40:09.348Z,100789.13
2023-05-05T10:43:20.070Z,100777.44
2023-05-05T10:46:36.183Z,100764.09
2023-05-05T10:50:04.069Z,100770.25
2023-05-05T10:53:37.166Z,100767.91
2023-05-05T10:56:54.084Z,100754.72
2023-05-05T11:00:02.104Z,100758.84
2023-05-05T11:03:17.081Z,100751.06
2023-05-05T11:06:25.127Z,100745.34
2023-05-05T11:09:34.516Z,100742.16
2023-05-05T11:13:01.169Z,100739.78
2023-05-05T11:16:46.599Z,100746.59
2023-05-05T11:19:55.089Z,100741.53
2023-05-05T11:23:10.109Z,100734.16
2023-05-05T11:26:20.105Z,100730.31
2023-05-05T11:30:03.715Z,100726.44
2023-05-05T11:33:32.115Z,100734.78
2023-05-05T11:36:40.911Z,100719.53
2023-05-05T11:40:26.130Z,100706.66
2023-05-05T11:43:28.116Z,100710.16
2023-05-05T11:47:00.568Z,100709.41
2023-05-05T11:50:19.912Z,100705.66
2023-05-05T11:53:36.097Z,100708.19
2023-05-05T11:56:51.793Z,100699.69
2023-05-05T12:00:11.310Z,100698.84
2023-05-05T12:03:27.276Z,100681.59
2023-05-05T12:06:32.646Z,100688.28
2023-05-05T12:09:50.119Z,100683.19
2023-05-05T12:12:58.801Z,100679.16
2023-05-05T12:16:17.179Z,100679.34
2023-05-05T12:19:25.688Z,100677.22
2023-05-05T12:22:34.102Z,100678.22
2023-05-05T12:25:49.173Z,100674.41
2023-05-05T12:29:08.106Z,100676.75
2023-05-05T12:32:21.704Z,100676.41
2023-05-05T12:35:37.101Z,100666.78
2023-05-05T12:38:39.043Z,100661.41
2023-05-05T12:41:54.094Z,100664.44
2023-05-05T12:45:02.129Z,100657.34
2023-05-05T12:48:26.180Z,100646.06
2023-05-05T12:51:42.122Z,100644.28
2023-05-05T12:54:57.808Z,100647.37
2023-05-05T12:58:13.104Z,100645.84
2023-05-05T13:01:15.045Z,100644.13
2023-05-05T13:04:34.148Z,100633.16
2023-05-05T13:07:43.117Z,100636.31
2023-05-05T13:10:58.177Z,100581.06
2023-05-05T13:14:14.109Z,100621.38
2023-05-05T13:17:16.026Z,100618.47
2023-05-05T13:20:31.102Z,100614.62
2023-05-05T13:23:33.253Z,100610.41
2023-05-05T13:26:48.152Z,100609.81
2023-05-05T13:30:03.157Z,100578.66
2023-05-05T13:33:05.633Z,100600.00
2023-05-05T13:36:20.139Z,100595.38
2023-05-05T13:39:29.169Z,100595.25
2023-05-05T13:42:44.201Z,100589.72
2023-05-05T13:45:46.413Z,100586.66
2023-05-05T13:49:08.121Z,100580.03
2023-05-05T13:52:23.169Z,100582.53
2023-05-05T13:55:30.938Z,100574.97
2023-05-05T13:58:46.193Z,100577.28
2023-05-05T14:02:01.177Z,100575.28
2023-05-05T14:05:10.301Z,100571.03
2023-05-05T14:08:18.736Z,100577.19
2023-05-05T14:11:27.136Z,100568.28
2023-05-05T14:14:35.676Z,100574.16
2023-05-05T14:17:50.161Z,100567.16
2023-05-05T14:20:58.797Z,100572.06
2023-05-05T14:24:13.148Z,100557.94
2023-05-05T14:27:21.150Z,100561.50
2023-05-05T14:30:36.175Z,100553.38
2023-05-05T14:33:44.896Z,100556.56
2023-05-05T14:36:53.195Z,100556.84
2023-05-05T14:40:08.154Z,100550.13
2023-05-05T14:43:10.153Z,100549.25
2023-05-05T14:46:25.231Z,100557.28
2023-05-05T14:49:47.155Z,100551.97
2023-05-05T14:53:02.131Z,100545.50
2023-05-05T14:56:17.166Z,100545.59
2023-05-05T14:59:32.129Z,100542.97
2023-05-05T15:02:34.211Z,100543.94
2023-05-05T15:05:50.184Z,100539.53
2023-05-05T15:08:58.756Z,100542.41
2023-05-05T15:12:07.161Z,100534.91
2023-05-05T15:15:15.838Z,100542.22
2023-05-05T15:18:30.155Z,100543.31
2023-05-05T15:21:31.978Z,100542.50
2023-05-05T15:24:49.197Z,100545.37
2023-05-05T15:27:57.177Z,100538.22
2023-05-05T15:31:12.193Z,100534.81
2023-05-05T15:34:14.298Z,100544.84
2023-05-05T15:37:30.174Z,100538.28
2023-05-05T15:40:32.039Z,100526.56
2023-05-05T15:43:47.143Z,100521.94
2023-05-05T15:46:55.206Z,100533.88
2023-05-05T15:50:17.155Z,100521.09
2023-05-05T15:53:25.642Z,100531.13
2023-05-05T15:56:40.156Z,100526.09
2023-05-05T15:59:48.166Z,100519.75
2023-05-05T16:03:03.261Z,100523.84
2023-05-05T16:06:05.482Z,100519.97
2023-05-05T16:09:20.173Z,100516.25
2023-05-05T16:12:35.184Z,100512.31
2023-05-05T16:15:37.037Z,100513.28
2023-05-05T16:18:52.180Z,100512.59
2023-05-05T16:21:54.836Z,100497.91
2023-05-05T16:25:09.419Z,100511.34
2023-05-05T16:28:11.538Z,100500.00
2023-05-05T16:31:26.153Z,100503.50
2023-05-05T16:34:34.935Z,100498.59
2023-05-05T16:37:43.186Z,100501.13
2023-05-05T16:40:51.818Z,100505.09
2023-05-05T16:44:00.181Z,100511.25
2023-05-05T16:47:15.213Z,100503.22
2023-05-05T16:50:30.457Z,100509.28
2023-05-05T16:57:00.183Z,100505.03
2023-05-05T17:00:16.202Z,100498.94
2023-05-05T17:03:31.184Z,100508.03
2023-05-05T17:06:33.290Z,100510.59
2023-05-05T17:09:48.229Z,100510.69
2023-05-05T17:13:03.241Z,100511.69
2023-05-05T17:16:11.700Z,100512.19
2023-05-05T17:19:26.177Z,100503.22
2023-05-05T17:22:34.994Z,100506.16
2023-05-05T17:25:43.239Z,100509.66
2023-05-05T17:28:58.172Z,100516.69
2023-05-05T17:32:00.262Z,100500.22
2023-05-05T17:35:15.178Z,100508.41
2023-05-05T17:38:17.073Z,100514.56
2023-05-05T17:41:32.178Z,100513.72
2023-05-05T17:44:47.682Z,100512.06
2023-05-05T17:48:09.178Z,100512.72
2023-05-05T17:51:24.178Z,100510.34
2023-05-05T17:54:32.802Z,100511.72
2023-05-05T17:57:47.243Z,100516.38
2023-05-05T18:00:49.355Z,100517.28
2023-05-05T18:04:04.191Z,100506.41
2023-05-05T18:07:12.222Z,100516.16
2023-05-05T18:10:27.230Z,100516.56
2023-05-05T18:13:35.822Z,100505.75
2023-05-05T18:16:44.287Z,100518.09
2023-05-05T18:19:52.779Z,100523.75
2023-05-05T18:23:07.200Z,100516.22
2023-05-05T18:26:09.157Z,100528.91
2023-05-05T18:29:25.228Z,100521.25
2023-05-05T18:32:33.215Z,100526.50
2023-05-05T18:35:48.241Z,100525.97
2023-05-05T18:38:56.246Z,100532.41
2023-05-05T18:42:11.213Z,100536.09
2023-05-05T18:45:20.029Z,100529.56
2023-05-05T18:48:36.202Z,100528.84
2023-05-05T18:51:44.835Z,100515.53
2023-05-05T18:54:53.232Z,100545.19
2023-05-05T18:58:01.855Z,100528.03
2023-05-05T19:01:16.309Z,100543.22
2023-05-05T19:04:31.926Z,100548.81
2023-05-05T19:07:35.603Z,100540.12
2023-05-05T19:10:51.224Z,100548.78
2023-05-05T19:14:00.224Z,100549.69
2023-05-05T19:17:15.199Z,100557.38
2023-05-05T19:20:17.070Z,100565.53
2023-05-05T19:23:32.229Z,100545.37
2023-05-05T19:26:40.697Z,100557.16
2023-05-05T19:29:49.228Z,100538.22
2023-05-05T19:33:04.288Z,100562.59
2023-05-05T19:36:13.269Z,100555.78
2023-05-05T19:39:21.860Z,100556.41
2023-05-05T19:42:36.211Z,100561.22
2023-05-05T19:45:38.104Z,100548.16
2023-05-05T19:48:53.214Z,100549.75
2023-05-05T19:51:55.619Z,100557.72
2023-05-05T19:55:11.204Z,100541.97
2023-05-05T19:58:26.217Z,100550.56
2023-05-05T20:01:29.121Z,100557.38
2023-05-05T20:04:44.197Z,100554.53
2023-05-05T20:07:46.205Z,100555.63
2023-05-05T20:11:01.207Z,100549.59
2023-05-05T20:14:09.228Z,100552.44
2023-05-05T20:17:17.785Z,100543.50
2023-05-05T20:20:32.225Z,100549.37
2023-05-05T20:23:40.866Z,100547.47
2023-05-05T20:26:55.223Z,100548.72
2023-05-05T20:29:57.279Z,100545.22
2023-05-05T20:33:12.231Z,100551.09
2023-05-05T20:36:27.235Z,100552.34
2023-05-05T20:39:29.205Z,100540.38
2023-05-05T20:42:44.240Z,100545.91
2023-05-05T20:45:52.242Z,100552.25
2023-05-05T20:49:07.220Z,100543.03
2023-05-05T20:52:16.040Z,100554.47
2023-05-05T20:55:24.237Z,100542.84
2023-05-05T20:58:32.793Z,100545.87
2023-05-05T21:01:41.264Z,100551.41
2023-05-05T21:04:56.188Z,100545.66
2023-05-05T21:08:04.210Z,100540.09
2023-05-05T21:11:19.235Z,100541.19
2023-05-05T21:14:21.375Z,100539.41
2023-05-05T21:17:36.246Z,100538.63
2023-05-05T21:20:44.231Z,100540.88
2023-05-05T21:23:59.200Z,100537.69
2023-05-05T21:27:14.230Z,100536.28
2023-05-05T21:30:17.013Z,100537.09
2023-05-05T21:33:32.233Z,100537.09
2023-05-05T21:36:40.294Z,100531.81
2023-05-05T21:39:48.987Z,100533.06
2023-05-05T21:43:04.213Z,100522.53
2023-05-05T21:46:12.285Z,100518.72
2023-05-05T21:49:20.756Z,100521.72
2023-05-05T21:52:35.284Z,100518.84
2023-05-05T21:55:37.159Z,100514.31
2023-05-05T21:58:52.253Z,100495.69
2023-05-05T22:02:01.375Z,100498.37
2023-05-05T22:05:10.231Z,100500.09
2023-05-05T22:08:19.581Z,100508.31
2023-05-05T22:11:28.251Z,100505.94
2023-05-05T22:14:37.009Z,100506.34
2023-05-05T22:17:45.238Z,100498.72
2023-05-05T22:21:00.247Z,100513.75
2023-05-05T22:24:15.227Z,100503.78
2023-05-05T22:27:23.223Z,100511.34
2023-05-05T22:30:31.908Z,100512.25
2023-05-05T22:33:46.246Z,100510.38
2023-05-05T22:36:54.790Z,100503.41
2023-05-05T22:40:03.247Z,100519.38
2023-05-05T22:43:18.220Z,100516.31
2023-05-05T22:46:20.137Z,100518.09
2023-05-05T22:49:42.314Z,100531.94
2023-05-05T22:52:44.318Z,100534.03
2023-05-05T22:55:59.263Z,100517.78
2023-05-05T22:59:08.286Z,100530.97
2023-05-05T23:02:23.272Z,100532.56
2023-05-05T23:05:32.238Z,100535.16
2023-05-05T23:08:47.234Z,100529.78
2023-05-05T23:11:56.202Z,100531.38
2023-05-05T23:15:04.227Z,100517.41
2023-05-05T23:18:12.837Z,100530.56
2023-05-05T23:21:29.219Z,100517.84
2023-05-05T23:24:38.220Z,100513.34
2023-05-05T23:27:53.225Z,100521.19
2023-05-05T23:31:02.314Z,100518.13
2023-05-05T23:34:10.994Z,100507.44
2023-05-05T23:37:20.263Z,100514.84
2023-05-05T23:40:28.817Z,100511.66
2023-05-05T23:43:37.273Z,100511.94
2023-05-05T23:46:52.246Z,100497.47
2023-05-05T23:50:08.227Z,100494.78
2023-05-05T23:53:16.213Z,100500.38
2023-05-05T23:56:25.080Z,100514.13
2023-05-05T23:59:33.219Z,100497.06
